sensor_id;sensor_type;location;lat;lon;timestamp;pressure;altitude;pressure_sealevel;temperature;humidity
11268;BME280;72685;47.474;9.416;2023-12-22T00:00:09;94389.97;;;7.36;94.94
11268;BME280;72685;47.474;9.416;2023-12-22T00:02:34;94399.31;;;7.25;96.55
11268;BME280;72685;47.474;9.416;2023-12-22T00:05:00;94398.41;;;7.30;95.90
11268;BME280;72685;47.474;9.416;2023-12-22T00:07:25;94412.59;;;7.34;95.86
11268;BME280;72685;47.474;9.416;2023-12-22T00:09:51;94431.25;;;7.42;94.45
11268;BME280;72685;47.474;9.416;2023-12-22T00:12:16;94429.84;;;7.45;94.29
11268;BME280;72685;47.474;9.416;2023-12-22T00:14:41;94435.94;;;7.45;94.39
11268;BME280;72685;47.474;9.416;2023-12-22T00:17:07;94421.84;;;7.36;95.49
11268;BME280;72685;47.474;9.416;2023-12-22T00:19:32;94402.47;;;7.44;93.83
11268;BME280;72685;47.474;9.416;2023-12-22T00:21:58;94388.09;;;7.45;92.89
11268;BME280;72685;47.474;9.416;2023-12-22T00:24:24;94396.06;;;7.54;91.46
11268;BME280;72685;47.474;9.416;2023-12-22T00:26:49;94406.88;;;7.49;92.11
11268;BME280;72685;47.474;9.416;2023-12-22T00:29:15;94410.59;;;7.57;91.09
11268;BME280;72685;47.474;9.416;2023-12-22T00:31:40;94424.22;;;7.64;89.65
11268;BME280;72685;47.474;9.416;2023-12-22T00:34:05;94409.03;;;7.73;88.39
11268;BME280;72685;47.474;9.416;2023-12-22T00:36:31;94417.50;;;7.75;87.32
11268;BME280;72685;47.474;9.416;2023-12-22T00:38:56;94412.66;;;7.77;86.36
11268;BME280;72685;47.474;9.416;2023-12-22T00:41:21;94433.28;;;7.80;85.85
11268;BME280;72685;47.474;9.416;2023-12-22T00:43:47;94410.78;;;7.77;86.01
11268;BME280;72685;47.474;9.416;2023-12-22T00:46:13;94418.28;;;7.67;88.20
11268;BME280;72685;47.474;9.416;2023-12-22T00:48:38;94407.81;;;7.62;87.41
11268;BME280;72685;47.474;9.416;2023-12-22T00:51:06;94429.06;;;7.62;87.55
11268;BME280;72685;47.474;9.416;2023-12-22T00:53:32;94427.81;;;7.59;88.05
11268;BME280;72685;47.474;9.416;2023-12-22T00:55:57;94419.84;;;7.59;87.38
11268;BME280;72685;47.474;9.416;2023-12-22T00:58:22;94415.00;;;7.53;88.94
11268;BME280;72685;47.474;9.416;2023-12-22T01:00:48;94455.94;;;7.43;90.94
11268;BME280;72685;47.474;9.416;2023-12-22T01:03:13;94454.94;;;7.13;94.72
11268;BME280;72685;47.474;9.416;2023-12-22T01:05:38;94454.13;;;7.04;95.73
11268;BME280;72685;47.474;9.416;2023-12-22T01:08:04;94473.28;;;6.92;98.36
11268;BME280;72685;47.474;9.416;2023-12-22T01:10:29;94486.53;;;6.84;99.69
11268;BME280;72685;47.474;9.416;2023-12-22T01:12:55;94477.09;;;6.69;100.00
11268;BME280;72685;47.474;9.416;2023-12-22T01:15:20;94479.63;;;6.83;98.99
11268;BME280;72685;47.474;9.416;2023-12-22T01:17:45;94529.41;;;6.69;100.00
11268;BME280;72685;47.474;9.416;2023-12-22T01:20:11;94531.22;;;6.60;100.00
11268;BME280;72685;47.474;9.416;2023-12-22T01:22:36;94551.91;;;6.49;100.00
11268;BME280;72685;47.474;9.416;2023-12-22T01:25:04;94547.03;;;6.43;100.00
11268;BME280;72685;47.474;9.416;2023-12-22T01:27:31;94571.94;;;6.33;100.00
11268;BME280;72685;47.474;9.416;2023-12-22T01:29:56;94553.47;;;6.28;100.00
11268;BME280;72685;47.474;9.416;2023-12-22T01:32:21;94550.75;;;6.19;100.00
11268;BME280;72685;47.474;9.416;2023-12-22T01:34:47;94567.44;;;6.20;100.00
11268;BME280;72685;47.474;9.416;2023-12-22T01:37:12;94567.38;;;6.11;100.00
11268;BME280;72685;47.474;9.416;2023-12-22T01:39:37;94551.28;;;6.08;100.00
11268;BME280;72685;47.474;9.416;2023-12-22T01:42:03;94545.38;;;6.11;100.00
11268;BME280;72685;47.474;9.416;2023-12-22T01:44:29;94548.59;;;6.21;100.00
11268;BME280;72685;47.474;9.416;2023-12-22T01:46:54;94550.75;;;6.42;100.00
11268;BME280;72685;47.474;9.416;2023-12-22T01:49:21;94560.00;;;6.44;100.00
11268;BME280;72685;47.474;9.416;2023-12-22T01:51:47;94550.66;;;6.47;100.00
11268;BME280;72685;47.474;9.416;2023-12-22T01:54:13;94555.63;;;6.48;100.00
11268;BME280;72685;47.474;9.416;2023-12-22T01:56:40;94551.84;;;6.41;97.73
11268;BME280;72685;47.474;9.416;2023-12-22T01:59:06;94544.13;;;6.30;97.42
11268;BME280;72685;47.474;9.416;2023-12-22T02:01:32;94542.78;;;6.19;98.45
11268;BME280;72685;47.474;9.416;2023-12-22T02:03:58;94557.56;;;6.12;97.86
11268;BME280;72685;47.474;9.416;2023-12-22T02:06:24;94545.31;;;6.02;98.57
11268;BME280;72685;47.474;9.416;2023-12-22T02:08:50;94554.81;;;6.03;99.13
11268;BME280;72685;47.474;9.416;2023-12-22T02:11:15;94546.72;;;5.86;100.00
11268;BME280;72685;47.474;9.416;2023-12-22T02:13:43;94548.56;;;5.99;100.00
11268;BME280;72685;47.474;9.416;2023-12-22T02:16:49;94559.16;;;5.99;100.00
11268;BME280;72685;47.474;9.416;2023-12-22T02:22:05;94578.22;;;6.01;100.00
11268;BME280;72685;47.474;9.416;2023-12-22T02:24:30;94572.31;;;6.04;100.00
11268;BME280;72685;47.474;9.416;2023-12-22T02:29:28;94553.16;;;6.07;100.00
11268;BME280;72685;47.474;9.416;2023-12-22T02:31:56;94543.88;;;6.18;100.00
11268;BME280;72685;47.474;9.416;2023-12-22T02:34:23;94546.13;;;6.25;98.78
11268;BME280;72685;47.474;9.416;2023-12-22T02:36:49;94555.03;;;6.29;98.15
11268;BME280;72685;47.474;9.416;2023-12-22T02:39:16;94553.16;;;6.29;97.93
11268;BME280;72685;47.474;9.416;2023-12-22T02:41:43;94548.38;;;6.31;96.16
11268;BME280;72685;47.474;9.416;2023-12-22T02:44:09;94549.91;;;6.32;95.90
11268;BME280;72685;47.474;9.416;2023-12-22T02:46:34;94554.81;;;6.39;93.81
11268;BME280;72685;47.474;9.416;2023-12-22T02:49:00;94538.09;;;6.38;93.65
11268;BME280;72685;47.474;9.416;2023-12-22T02:51:25;94556.56;;;6.44;93.16
11268;BME280;72685;47.474;9.416;2023-12-22T02:53:51;94547.81;;;6.43;93.65
11268;BME280;72685;47.474;9.416;2023-12-22T02:56:16;94550.66;;;6.47;93.84
11268;BME280;72685;47.474;9.416;2023-12-22T02:58:41;94542.78;;;6.42;94.32
11268;BME280;72685;47.474;9.416;2023-12-22T03:01:07;94551.72;;;6.46;94.08
11268;BME280;72685;47.474;9.416;2023-12-22T03:03:32;94567.66;;;6.46;95.26
11268;BME280;72685;47.474;9.416;2023-12-22T03:05:57;94560.66;;;6.50;94.23
11268;BME280;72685;47.474;9.416;2023-12-22T03:08:23;94561.09;;;6.43;95.46
11268;BME280;72685;47.474;9.416;2023-12-22T03:10:48;94547.22;;;6.46;95.13
11268;BME280;72685;47.474;9.416;2023-12-22T03:13:13;94547.63;;;6.39;96.53
11268;BME280;72685;47.474;9.416;2023-12-22T03:15:39;94538.59;;;6.41;95.92
11268;BME280;72685;47.474;9.416;2023-12-22T03:18:04;94528.78;;;6.41;95.51
11268;BME280;72685;47.474;9.416;2023-12-22T03:20:30;94532.25;;;6.50;94.74
11268;BME280;72685;47.474;9.416;2023-12-22T03:22:56;94548.03;;;6.55;94.55
11268;BME280;72685;47.474;9.416;2023-12-22T03:25:21;94533.16;;;6.46;96.00
11268;BME280;72685;47.474;9.416;2023-12-22T03:27:47;94559.69;;;6.46;96.73
11268;BME280;72685;47.474;9.416;2023-12-22T03:30:12;94548.88;;;6.42;97.39
11268;BME280;72685;47.474;9.416;2023-12-22T03:32:38;94555.41;;;6.36;99.23
11268;BME280;72685;47.474;9.416;2023-12-22T03:35:03;94561.22;;;6.38;99.67
11268;BME280;72685;47.474;9.416;2023-12-22T03:37:29;94561.03;;;6.34;100.00
11268;BME280;72685;47.474;9.416;2023-12-22T03:39:54;94566.44;;;6.29;100.00
11268;BME280;72685;47.474;9.416;2023-12-22T03:42:19;94533.06;;;6.28;100.00
11268;BME280;72685;47.474;9.416;2023-12-22T03:44:45;94555.34;;;6.27;100.00
11268;BME280;72685;47.474;9.416;2023-12-22T03:47:10;94540.03;;;6.24;100.00
11268;BME280;72685;47.474;9.416;2023-12-22T03:49:36;94582.75;;;6.23;100.00
11268;BME280;72685;47.474;9.416;2023-12-22T03:52:01;94565.78;;;6.24;100.00
11268;BME280;72685;47.474;9.416;2023-12-22T03:54:26;94560.47;;;6.24;100.00
11268;BME280;72685;47.474;9.416;2023-12-22T03:56:52;94593.09;;;6.24;100.00
11268;BME280;72685;47.474;9.416;2023-12-22T03:59:17;94574.50;;;6.24;100.00
11268;BME280;72685;47.474;9.416;2023-12-22T04:01:44;94585.13;;;6.24;100.00
11268;BME280;72685;47.474;9.416;2023-12-22T04:04:09;94577.16;;;6.24;100.00
11268;BME280;72685;47.474;9.416;2023-12-22T04:06:38;94578.72;;;6.25;100.00
11268;BME280;72685;47.474;9.416;2023-12-22T04:09:04;94576.38;;;6.24;100.00
11268;BME280;72685;47.474;9.416;2023-12-22T04:11:29;94582.94;;;6.26;100.00
11268;BME280;72685;47.474;9.416;2023-12-22T04:13:54;94586.19;;;6.23;100.00
11268;BME280;72685;47.474;9.416;2023-12-22T04:16:20;94579.31;;;6.22;100.00
11268;BME280;72685;47.474;9.416;2023-12-22T04:18:45;94571.38;;;6.22;100.00
11268;BME280;72685;47.474;9.416;2023-12-22T04:21:10;94570.28;;;6.23;100.00
11268;BME280;72685;47.474;9.416;2023-12-22T04:23:36;94579.69;;;6.29;100.00
11268;BME280;72685;47.474;9.416;2023-12-22T04:26:01;94582.06;;;6.31;100.00
11268;BME280;72685;47.474;9.416;2023-12-22T04:28:27;94586.78;;;6.34;100.00
11268;BME280;72685;47.474;9.416;2023-12-22T04:30:52;94593.63;;;6.35;99.75
11268;BME280;72685;47.474;9.416;2023-12-22T04:33:18;94595.19;;;6.36;98.63
11268;BME280;72685;47.474;9.416;2023-12-22T04:35:43;94588.81;;;6.37;96.98
11268;BME280;72685;47.474;9.416;2023-12-22T04:38:08;94603.16;;;6.36;96.50
11268;BME280;72685;47.474;9.416;2023-12-22T04:40:34;94612.44;;;6.25;98.63
11268;BME280;72685;47.474;9.416;2023-12-22T04:42:59;94605.13;;;5.95;100.00
11268;BME280;72685;47.474;9.416;2023-12-22T04:45:24;94640.78;;;5.89;100.00
11268;BME280;72685;47.474;9.416;2023-12-22T04:47:50;94627.09;;;5.81;100.00
11268;BME280;72685;47.474;9.416;2023-12-22T04:50:15;94632.44;;;5.68;100.00
11268;BME280;72685;47.474;9.416;2023-12-22T04:52:40;94626.03;;;5.69;100.00
11268;BME280;72685;47.474;9.416;2023-12-22T04:55:06;94621.84;;;5.68;100.00
11268;BME280;72685;47.474;9.416;2023-12-22T04:57:31;94628.09;;;5.72;100.00
11268;BME280;72685;47.474;9.416;2023-12-22T04:59:57;94627.50;;;5.75;100.00
11268;BME280;72685;47.474;9.416;2023-12-22T05:02:22;94622.41;;;5.78;100.00
11268;BME280;72685;47.474;9.416;2023-12-22T05:04:47;94618.31;;;5.86;100.00
11268;BME280;72685;47.474;9.416;2023-12-22T05:07:13;94639.50;;;6.00;100.00
11268;BME280;72685;47.474;9.416;2023-12-22T05:09:41;94629.25;;;6.07;100.00
11268;BME280;72685;47.474;9.416;2023-12-22T05:12:06;94631.44;;;6.05;100.00
11268;BME280;72685;47.474;9.416;2023-12-22T05:14:32;94639.19;;;6.01;100.00
11268;BME280;72685;47.474;9.416;2023-12-22T05:16:57;94631.72;;;6.03;100.00
11268;BME280;72685;47.474;9.416;2023-12-22T05:19:22;94636.44;;;6.06;100.00
11268;BME280;72685;47.474;9.416;2023-12-22T05:21:48;94638.78;;;6.08;100.00
11268;BME280;72685;47.474;9.416;2023-12-22T05:24:15;94640.84;;;6.11;100.00
11268;BME280;72685;47.474;9.416;2023-12-22T05:26:40;94644.28;;;6.11;100.00
11268;BME280;72685;47.474;9.416;2023-12-22T05:29:05;94631.69;;;6.17;100.00
11268;BME280;72685;47.474;9.416;2023-12-22T05:31:33;94650.28;;;6.17;99.96
11268;BME280;72685;47.474;9.416;2023-12-22T05:33:59;94660.47;;;6.23;98.08
11268;BME280;72685;47.474;9.416;2023-12-22T05:36:25;94664.19;;;6.22;98.27
11268;BME280;72685;47.474;9.416;2023-12-22T05:38:51;94663.03;;;6.28;95.83
11268;BME280;72685;47.474;9.416;2023-12-22T05:41:16;94685.81;;;6.29;94.27
11268;BME280;72685;47.474;9.416;2023-12-22T05:43:41;94663.78;;;6.29;93.95
11268;BME280;72685;47.474;9.416;2023-12-22T05:46:07;94684.81;;;6.25;94.48
11268;BME280;72685;47.474;9.416;2023-12-22T05:48:33;94688.28;;;6.26;93.78
11268;BME280;72685;47.474;9.416;2023-12-22T05:50:59;94686.41;;;6.26;92.85
11268;BME280;72685;47.474;9.416;2023-12-22T05:53:24;94688.59;;;6.24;92.91
11268;BME280;72685;47.474;9.416;2023-12-22T05:55:50;94693.09;;;6.24;92.76
11268;BME280;72685;47.474;9.416;2023-12-22T05:58:15;94691.22;;;6.24;92.33
11268;BME280;72685;47.474;9.416;2023-12-22T06:00:40;94697.53;;;6.28;90.84
11268;BME280;72685;47.474;9.416;2023-12-22T06:03:06;94695.75;;;6.24;92.06
11268;BME280;72685;47.474;9.416;2023-12-22T06:05:31;94717.56;;;6.21;91.45
11268;BME280;72685;47.474;9.416;2023-12-22T06:07:57;94712.94;;;6.26;90.82
11268;BME280;72685;47.474;9.416;2023-12-22T06:10:22;94714.13;;;6.20;91.68
11268;BME280;72685;47.474;9.416;2023-12-22T06:12:47;94725.03;;;6.19;91.13
11268;BME280;72685;47.474;9.416;2023-12-22T06:15:13;94731.41;;;6.18;91.64
11268;BME280;72685;47.474;9.416;2023-12-22T06:17:38;94736.13;;;6.21;90.64
11268;BME280;72685;47.474;9.416;2023-12-22T06:20:04;94736.22;;;6.16;90.78
11268;BME280;72685;47.474;9.416;2023-12-22T06:22:29;94750.25;;;6.16;90.75
11268;BME280;72685;47.474;9.416;2023-12-22T06:24:54;94735.44;;;6.15;90.87
11268;BME280;72685;47.474;9.416;2023-12-22T06:27:20;94736.81;;;6.13;90.67
11268;BME280;72685;47.474;9.416;2023-12-22T06:29:45;94740.56;;;6.12;90.55
11268;BME280;72685;47.474;9.416;2023-12-22T06:32:10;94736.72;;;6.18;89.88
11268;BME280;72685;47.474;9.416;2023-12-22T06:34:37;94748.41;;;6.17;89.67
11268;BME280;72685;47.474;9.416;2023-12-22T06:37:02;94762.34;;;6.22;88.98
11268;BME280;72685;47.474;9.416;2023-12-22T06:39:28;94747.03;;;6.19;89.72
11268;BME280;72685;47.474;9.416;2023-12-22T06:41:53;94751.25;;;6.20;89.17
11268;BME280;72685;47.474;9.416;2023-12-22T06:44:19;94744.88;;;6.21;88.84
11268;BME280;72685;47.474;9.416;2023-12-22T06:46:44;94767.16;;;6.20;89.20
11268;BME280;72685;47.474;9.416;2023-12-22T06:49:10;94750.47;;;6.20;89.76
11268;BME280;72685;47.474;9.416;2023-12-22T06:51:35;94767.38;;;6.24;89.20
11268;BME280;72685;47.474;9.416;2023-12-22T06:54:01;94748.31;;;6.22;89.24
11268;BME280;72685;47.474;9.416;2023-12-22T06:56:28;94765.59;;;6.33;87.54
11268;BME280;72685;47.474;9.416;2023-12-22T06:58:56;94754.97;;;6.33;87.68
11268;BME280;72685;47.474;9.416;2023-12-22T07:01:28;94739.06;;;6.33;87.74
11268;BME280;72685;47.474;9.416;2023-12-22T07:03:54;94746.03;;;6.29;88.84
11268;BME280;72685;47.474;9.416;2023-12-22T07:06:20;94752.81;;;6.35;86.99
11268;BME280;72685;47.474;9.416;2023-12-22T07:09:41;94762.66;;;6.34;87.47
11268;BME280;72685;47.474;9.416;2023-12-22T07:11:44;94760.75;;;6.35;87.20
11268;BME280;72685;47.474;9.416;2023-12-22T07:14:10;94769.44;;;6.41;86.05
11268;BME280;72685;47.474;9.416;2023-12-22T07:16:36;94763.63;;;6.38;86.62
11268;BME280;72685;47.474;9.416;2023-12-22T07:19:02;94773.03;;;6.45;85.71
11268;BME280;72685;47.474;9.416;2023-12-22T07:21:27;94791.63;;;6.45;86.08
11268;BME280;72685;47.474;9.416;2023-12-22T07:23:53;94781.41;;;6.52;85.29
11268;BME280;72685;47.474;9.416;2023-12-22T07:26:18;94781.50;;;6.47;86.01
11268;BME280;72685;47.474;9.416;2023-12-22T07:28:43;94795.06;;;6.45;85.81
11268;BME280;72685;47.474;9.416;2023-12-22T07:31:09;94788.69;;;6.32;87.82
11268;BME280;72685;47.474;9.416;2023-12-22T07:33:34;94791.84;;;6.34;86.95
11268;BME280;72685;47.474;9.416;2023-12-22T07:36:00;94796.84;;;6.36;87.68
11268;BME280;72685;47.474;9.416;2023-12-22T07:38:25;94797.84;;;6.40;86.23
11268;BME280;72685;47.474;9.416;2023-12-22T07:40:51;94801.47;;;6.44;85.81
11268;BME280;72685;47.474;9.416;2023-12-22T07:43:16;94803.94;;;6.41;86.45
11268;BME280;72685;47.474;9.416;2023-12-22T07:45:42;94797.84;;;6.40;86.71
11268;BME280;72685;47.474;9.416;2023-12-22T07:48:07;94794.28;;;6.45;85.90
11268;BME280;72685;47.474;9.416;2023-12-22T07:50:33;94805.19;;;6.43;86.28
11268;BME280;72685;47.474;9.416;2023-12-22T07:52:58;94811.19;;;6.49;85.88
11268;BME280;72685;47.474;9.416;2023-12-22T07:55:24;94815.91;;;6.52;84.91
11268;BME280;72685;47.474;9.416;2023-12-22T07:57:50;94850.00;;;6.58;84.61
11268;BME280;72685;47.474;9.416;2023-12-22T08:00:17;94847.66;;;6.57;85.18
11268;BME280;72685;47.474;9.416;2023-12-22T08:02:42;94850.41;;;6.52;85.72
11268;BME280;72685;47.474;9.416;2023-12-22T08:05:08;94838.41;;;6.54;85.83
11268;BME280;72685;47.474;9.416;2023-12-22T08:07:33;94855.72;;;6.52;85.46
11268;BME280;72685;47.474;9.416;2023-12-22T08:09:59;94846.59;;;6.44;87.25
11268;BME280;72685;47.474;9.416;2023-12-22T08:12:24;94858.56;;;6.55;84.93
11268;BME280;72685;47.474;9.416;2023-12-22T08:14:49;94863.06;;;6.55;85.20
11268;BME280;72685;47.474;9.416;2023-12-22T08:17:15;94848.94;;;6.59;83.39
11268;BME280;72685;47.474;9.416;2023-12-22T08:19:40;94842.56;;;6.60;83.41
11268;BME280;72685;47.474;9.416;2023-12-22T08:22:09;94854.25;;;6.59;83.33
11268;BME280;72685;47.474;9.416;2023-12-22T08:24:35;94860.34;;;6.60;82.78
11268;BME280;72685;47.474;9.416;2023-12-22T08:27:01;94851.47;;;6.64;82.40
11268;BME280;72685;47.474;9.416;2023-12-22T08:29:26;94844.09;;;6.61;82.93
11268;BME280;72685;47.474;9.416;2023-12-22T08:31:51;94825.84;;;6.60;82.67
11268;BME280;72685;47.474;9.416;2023-12-22T08:34:17;94851.00;;;6.49;84.70
11268;BME280;72685;47.474;9.416;2023-12-22T08:36:42;94819.75;;;6.46;84.36
11268;BME280;72685;47.474;9.416;2023-12-22T08:39:08;94827.09;;;6.49;84.58
11268;BME280;72685;47.474;9.416;2023-12-22T08:41:33;94841.97;;;6.50;83.90
11268;BME280;72685;47.474;9.416;2023-12-22T08:44:05;94813.44;;;6.55;83.10
11268;BME280;72685;47.474;9.416;2023-12-22T08:46:30;94828.78;;;6.58;83.03
11268;BME280;72685;47.474;9.416;2023-12-22T08:48:56;94847.94;;;6.55;83.33
11268;BME280;72685;47.474;9.416;2023-12-22T08:51:22;94869.50;;;6.54;83.35
11268;BME280;72685;47.474;9.416;2023-12-22T08:53:47;94863.88;;;6.55;83.75
11268;BME280;72685;47.474;9.416;2023-12-22T08:56:13;94857.28;;;6.53;84.30
11268;BME280;72685;47.474;9.416;2023-12-22T08:58:38;94826.03;;;6.50;84.84
11268;BME280;72685;47.474;9.416;2023-12-22T09:01:05;94856.50;;;6.52;85.16
11268;BME280;72685;47.474;9.416;2023-12-22T09:03:33;94844.81;;;6.53;84.72
11268;BME280;72685;47.474;9.416;2023-12-22T09:05:59;94841.06;;;6.54;85.04
11268;BME280;72685;47.474;9.416;2023-12-22T09:08:24;94844.50;;;6.55;85.34
11268;BME280;72685;47.474;9.416;2023-12-22T09:10:50;94841.84;;;6.55;85.85
11268;BME280;72685;47.474;9.416;2023-12-22T09:13:16;94845.81;;;6.57;84.79
11268;BME280;72685;47.474;9.416;2023-12-22T09:15:42;94827.22;;;6.57;84.89
11268;BME280;72685;47.474;9.416;2023-12-22T09:18:07;94849.72;;;6.60;85.01
11268;BME280;72685;47.474;9.416;2023-12-22T09:20:32;94849.81;;;6.55;85.81
11268;BME280;72685;47.474;9.416;2023-12-22T09:22:58;94838.72;;;6.53;86.71
11268;BME280;72685;47.474;9.416;2023-12-22T09:25:23;94844.88;;;6.48;87.11
11268;BME280;72685;47.474;9.416;2023-12-22T09:27:49;94850.19;;;6.48;86.40
11268;BME280;72685;47.474;9.416;2023-12-22T09:30:15;94877.84;;;6.47;86.96
11268;BME280;72685;47.474;9.416;2023-12-22T09:32:40;94852.09;;;6.48;86.45
11268;BME280;72685;47.474;9.416;2023-12-22T09:35:05;94848.34;;;6.49;86.41
11268;BME280;72685;47.474;9.416;2023-12-22T09:37:31;94867.44;;;6.51;86.38
11268;BME280;72685;47.474;9.416;2023-12-22T09:39:56;94874.81;;;6.54;85.97
11268;BME280;72685;47.474;9.416;2023-12-22T09:42:24;94877.44;;;6.54;85.89
11268;BME280;72685;47.474;9.416;2023-12-22T09:44:53;94876.34;;;6.55;85.79
11268;BME280;72685;47.474;9.416;2023-12-22T09:47:20;94858.56;;;6.55;86.16
11268;BME280;72685;47.474;9.416;2023-12-22T09:49:46;94864.28;;;6.62;85.10
11268;BME280;72685;47.474;9.416;2023-12-22T09:52:13;94853.06;;;6.65;84.48
11268;BME280;72685;47.474;9.416;2023-12-22T09:54:40;94848.81;;;6.64;85.58
11268;BME280;72685;47.474;9.416;2023-12-22T09:57:06;94863.41;;;6.67;84.86
11268;BME280;72685;47.474;9.416;2023-12-22T09:59:32;94850.59;;;6.69;84.23
11268;BME280;72685;47.474;9.416;2023-12-22T10:02:00;94837.94;;;6.66;84.87
11268;BME280;72685;47.474;9.416;2023-12-22T10:04:27;94859.16;;;6.66;84.30
11268;BME280;72685;47.474;9.416;2023-12-22T10:06:53;94859.38;;;6.69;84.15
11268;BME280;72685;47.474;9.416;2023-12-22T10:09:22;94847.94;;;6.69;84.37
11268;BME280;72685;47.474;9.416;2023-12-22T10:11:49;94862.00;;;6.69;84.55
11268;BME280;72685;47.474;9.416;2023-12-22T10:14:17;94862.00;;;6.69;84.03
11268;BME280;72685;47.474;9.416;2023-12-22T10:16:48;94854.84;;;6.70;83.81
11268;BME280;72685;47.474;9.416;2023-12-22T10:19:15;94861.22;;;6.69;83.76
11268;BME280;72685;47.474;9.416;2023-12-22T10:21:40;94849.63;;;6.65;84.77
11268;BME280;72685;47.474;9.416;2023-12-22T10:24:06;94873.81;;;6.63;84.82
11268;BME280;72685;47.474;9.416;2023-12-22T10:26:31;94866.13;;;6.62;84.69
11268;BME280;72685;47.474;9.416;2023-12-22T10:28:56;94872.72;;;6.64;85.36
11268;BME280;72685;47.474;9.416;2023-12-22T10:31:22;94874.09;;;6.62;85.00
11268;BME280;72685;47.474;9.416;2023-12-22T10:33:47;94861.91;;;6.61;85.08
11268;BME280;72685;47.474;9.416;2023-12-22T10:36:13;94841.47;;;6.61;85.16
11268;BME280;72685;47.474;9.416;2023-12-22T10:38:39;94840.28;;;6.67;83.50
11268;BME280;72685;47.474;9.416;2023-12-22T10:41:06;94832.03;;;6.69;83.71
11268;BME280;72685;47.474;9.416;2023-12-22T10:43:40;94844.97;;;6.70;83.58
11268;BME280;72685;47.474;9.416;2023-12-22T10:46:06;94852.88;;;6.75;83.25
11268;BME280;72685;47.474;9.416;2023-12-22T10:48:33;94843.22;;;6.79;81.84
11268;BME280;72685;47.474;9.416;2023-12-22T10:50:59;94850.88;;;6.81;82.58
11268;BME280;72685;47.474;9.416;2023-12-22T10:53:24;94865.75;;;6.82;81.53
11268;BME280;72685;47.474;9.416;2023-12-22T10:55:49;94848.53;;;6.79;83.23
11268;BME280;72685;47.474;9.416;2023-12-22T10:58:16;94851.97;;;6.80;nan
11268;BME280;72685;47.474;9.416;2023-12-22T11:00:45;94845.28;;;6.82;81.52
11268;BME280;72685;47.474;9.416;2023-12-22T11:03:13;94839.47;;;6.80;82.25
11268;BME280;72685;47.474;9.416;2023-12-22T11:05:44;94838.69;;;6.80;82.34
11268;BME280;72685;47.474;9.416;2023-12-22T11:08:11;94843.72;;;6.81;82.60
11268;BME280;72685;47.474;9.416;2023-12-22T11:10:41;94826.50;;;6.79;82.72
11268;BME280;72685;47.474;9.416;2023-12-22T11:13:12;94829.25;;;6.74;83.49
11268;BME280;72685;47.474;9.416;2023-12-22T11:15:39;94825.25;;;6.76;83.73
11268;BME280;72685;47.474;9.416;2023-12-22T11:18:05;94835.28;;;6.79;82.78
11268;BME280;72685;47.474;9.416;2023-12-22T11:20:31;94808.88;;;6.83;82.82
11268;BME280;72685;47.474;9.416;2023-12-22T11:22:59;94812.66;;;6.82;83.49
11268;BME280;72685;47.474;9.416;2023-12-22T11:25:26;94826.13;;;6.85;82.87
11268;BME280;72685;47.474;9.416;2023-12-22T11:27:52;94808.88;;;6.83;83.47
11268;BME280;72685;47.474;9.416;2023-12-22T11:30:20;94787.16;;;6.81;83.97
11268;BME280;72685;47.474;9.416;2023-12-22T11:32:45;94777.34;;;6.81;84.30
11268;BME280;72685;47.474;9.416;2023-12-22T11:35:11;94774.19;;;6.79;84.84
11268;BME280;72685;47.474;9.416;2023-12-22T11:37:38;94776.34;;;6.77;84.75
11268;BME280;72685;47.474;9.416;2023-12-22T11:40:04;94758.06;;;6.76;85.08
11268;BME280;72685;47.474;9.416;2023-12-22T11:42:34;94762.00;;;6.78;84.84
11268;BME280;72685;47.474;9.416;2023-12-22T11:45:02;94761.00;;;6.74;84.80
11268;BME280;72685;47.474;9.416;2023-12-22T11:47:28;94763.38;;;6.76;84.53
11268;BME280;72685;47.474;9.416;2023-12-22T11:49:55;94754.91;;;6.74;85.36
11268;BME280;72685;47.474;9.416;2023-12-22T11:52:27;94782.84;;;6.71;85.13
11268;BME280;72685;47.474;9.416;2023-12-22T11:54:57;94760.22;;;6.74;85.90
11268;BME280;72685;47.474;9.416;2023-12-22T11:57:39;94766.13;;;6.71;86.07
11268;BME280;72685;47.474;9.416;2023-12-22T12:00:10;94759.88;;;6.67;87.51
11268;BME280;72685;47.474;9.416;2023-12-22T12:02:56;94765.06;;;6.58;88.19
11268;BME280;72685;47.474;9.416;2023-12-22T12:05:22;94751.72;;;6.50;89.74
11268;BME280;72685;47.474;9.416;2023-12-22T12:07:48;94746.34;;;6.41;90.85
11268;BME280;72685;47.474;9.416;2023-12-22T12:13:11;94756.09;;;6.18;95.54
11268;BME280;72685;47.474;9.416;2023-12-22T12:15:38;94744.28;;;6.11;94.94
11268;BME280;72685;47.474;9.416;2023-12-22T12:18:06;94732.91;;;5.97;96.89
11268;BME280;72685;47.474;9.416;2023-12-22T12:20:32;94742.22;;;5.94;97.07
11268;BME280;72685;47.474;9.416;2023-12-22T12:22:57;94723.31;;;5.82;98.43
11268;BME280;72685;47.474;9.416;2023-12-22T12:25:25;94725.78;;;5.78;98.63
11268;BME280;72685;47.474;9.416;2023-12-22T12:28:05;94730.19;;;5.69;99.40
11268;BME280;72685;47.474;9.416;2023-12-22T12:30:32;94727.06;;;5.67;99.82
11268;BME280;72685;47.474;9.416;2023-12-22T12:33:07;94719.47;;;5.61;100.00
11268;BME280;72685;47.474;9.416;2023-12-22T12:35:34;94721.53;;;5.64;100.00
11268;BME280;72685;47.474;9.416;2023-12-22T12:37:59;94733.53;;;5.61;100.00
11268;BME280;72685;47.474;9.416;2023-12-22T12:40:27;94729.09;;;5.57;100.00
11268;BME280;72685;47.474;9.416;2023-12-22T12:42:55;94713.88;;;5.62;100.00
11268;BME280;72685;47.474;9.416;2023-12-22T12:45:24;94709.75;;;5.56;100.00
11268;BME280;72685;47.474;9.416;2023-12-22T12:48:00;94712.91;;;5.58;100.00
11268;BME280;72685;47.474;9.416;2023-12-22T12:50:26;94719.84;;;5.54;100.00
11268;BME280;72685;47.474;9.416;2023-12-22T12:52:55;94699.84;;;5.62;100.00
11268;BME280;72685;47.474;9.416;2023-12-22T12:55:22;94705.50;;;5.55;100.00
11268;BME280;72685;47.474;9.416;2023-12-22T12:57:54;94703.66;;;5.56;100.00
11268;BME280;72685;47.474;9.416;2023-12-22T13:00:27;94695.31;;;5.49;100.00
11268;BME280;72685;47.474;9.416;2023-12-22T13:02:57;94698.94;;;5.53;100.00
11268;BME280;72685;47.474;9.416;2023-12-22T13:05:25;94698.06;;;5.57;100.00
11268;BME280;72685;47.474;9.416;2023-12-22T13:07:51;94701.31;;;5.54;100.00
11268;BME280;72685;47.474;9.416;2023-12-22T13:10:24;94724.06;;;5.55;100.00